createdAt,value
2023-05-11T00:01:11.969Z,46.29
2023-05-11T00:03:44.980Z,46.50
2023-05-11T00:06:17.196Z,46.67
2023-05-11T00:08:49.416Z,46.54
2023-05-11T00:11:21.678Z,46.94
2023-05-11T00:13:53.831Z,46.94
2023-05-11T00:16:26.213Z,47.22
2023-05-11T00:18:58.662Z,47.03
2023-05-11T00:21:31.152Z,47.31
2023-05-11T00:24:03.433Z,47.54
2023-05-11T00:26:35.862Z,47.62
2023-05-11T00:29:08.013Z,47.68
2023-05-11T00:31:40.543Z,47.71
2023-05-11T00:34:13.263Z,48.00
2023-05-11T00:36:45.893Z,48.16
2023-05-11T00:39:18.473Z,48.11
2023-05-11T00:41:50.674Z,47.92
2023-05-11T00:44:22.998Z,47.61
2023-05-11T00:46:55.318Z,47.98
2023-05-11T00:49:27.770Z,47.68
2023-05-11T00:52:03.144Z,47.86
2023-05-11T00:54:36.836Z,48.24
2023-05-11T00:57:09.218Z,47.88
2023-05-11T00:59:41.596Z,48.00
2023-05-11T01:02:14.060Z,47.94
2023-05-11T01:04:46.917Z,48.36
2023-05-11T01:07:24.324Z,47.96
2023-05-11T01:10:07.642Z,48.22
2023-05-11T01:12:48.164Z,47.88
2023-05-11T01:15:26.172Z,47.64
2023-05-11T01:18:05.595Z,47.84
2023-05-11T01:20:37.969Z,47.91
2023-05-11T01:23:38.799Z,47.77
2023-05-11T01:26:25.172Z,47.49
2023-05-11T01:29:15.423Z,47.45
2023-05-11T01:31:50.872Z,47.72
2023-05-11T01:34:26.949Z,47.34
2023-05-11T01:37:06.495Z,47.20
2023-05-11T01:39:42.170Z,46.92
2023-05-11T01:42:15.483Z,46.86
2023-05-11T01:44:51.611Z,46.98
2023-05-11T01:47:27.451Z,46.85
2023-05-11T01:50:01.908Z,46.48
2023-05-11T01:52:35.639Z,46.63
2023-05-11T01:55:11.205Z,46.50
2023-05-11T01:57:44.524Z,46.54
2023-05-11T02:00:19.652Z,46.17
2023-05-11T02:02:54.708Z,46.43
2023-05-11T02:05:28.418Z,46.92
2023-05-11T02:08:02.586Z,46.32
2023-05-11T02:10:38.289Z,46.22
2023-05-11T02:13:11.510Z,46.12
2023-05-11T02:15:46.160Z,46.20
2023-05-11T02:18:20.429Z,45.92
2023-05-11T02:20:54.028Z,45.56
2023-05-11T02:23:28.196Z,45.81
2023-05-11T02:26:01.069Z,45.65
2023-05-11T02:28:34.037Z,45.88
2023-05-11T02:31:17.996Z,45.55
2023-05-11T02:33:54.620Z,45.96
2023-05-11T02:36:29.590Z,46.32
2023-05-11T02:39:07.051Z,46.53
2023-05-11T02:41:44.799Z,46.70
2023-05-11T02:44:21.314Z,46.73
2023-05-11T02:46:57.037Z,46.32
2023-05-11T02:49:32.875Z,46.54
2023-05-11T02:52:07.624Z,46.61
2023-05-11T02:54:43.831Z,47.10
2023-05-11T02:57:16.762Z,47.12
2023-05-11T02:59:50.723Z,47.07
2023-05-11T03:02:23.732Z,46.81
2023-05-11T03:04:56.408Z,47.26
2023-05-11T03:07:29.231Z,46.94
2023-05-11T03:10:02.784Z,46.95
2023-05-11T03:12:39.105Z,47.45
2023-05-11T03:15:13.153Z,47.29
2023-05-11T03:17:47.563Z,47.71
2023-05-11T03:20:23.468Z,47.32
2023-05-11T03:22:56.724Z,47.29
2023-05-11T03:25:30.013Z,47.30
2023-05-11T03:28:05.536Z,47.72
2023-05-11T03:30:39.073Z,47.85
2023-05-11T03:33:11.371Z,47.58
2023-05-11T03:35:47.808Z,47.65
2023-05-11T03:38:29.255Z,47.51
2023-05-11T03:41:03.291Z,47.79
2023-05-11T03:43:39.918Z,47.08
2023-05-11T03:46:13.287Z,47.65
2023-05-11T03:48:46.233Z,47.36
2023-05-11T03:51:20.948Z,47.10
2023-05-11T03:53:53.470Z,47.31
2023-05-11T03:56:26.094Z,47.62
2023-05-11T03:58:58.682Z,47.46
2023-05-11T04:01:31.481Z,47.27
2023-05-11T04:04:04.033Z,47.39
2023-05-11T04:06:36.867Z,47.42
2023-05-11T04:09:28.131Z,47.46
2023-05-11T04:12:00.912Z,47.55
2023-05-11T04:14:34.139Z,47.39
2023-05-11T04:17:06.628Z,47.35
2023-05-11T04:19:38.873Z,47.14
2023-05-11T04:22:12.255Z,47.33
2023-05-11T04:24:45.280Z,46.90
2023-05-11T04:27:17.812Z,46.95
2023-05-11T04:29:50.001Z,46.56
2023-05-11T04:32:23.708Z,46.93
2023-05-11T04:34:56.216Z,46.55
2023-05-11T04:37:30.404Z,46.28
2023-05-11T04:40:04.526Z,46.19
2023-05-11T04:42:42.613Z,46.34
2023-05-11T04:45:20.218Z,45.98
2023-05-11T04:47:52.865Z,46.11
2023-05-11T04:50:25.190Z,46.66
2023-05-11T04:52:57.989Z,46.28
2023-05-11T04:55:30.417Z,46.26
2023-05-11T04:58:04.530Z,46.40
2023-05-11T05:00:37.796Z,46.40
2023-05-11T05:03:10.045Z,46.03
2023-05-11T05:05:42.306Z,46.53
2023-05-11T05:08:15.789Z,46.33
2023-05-11T05:10:54.653Z,46.29
2023-05-11T05:13:27.314Z,46.36
2023-05-11T05:15:59.972Z,46.39
2023-05-11T05:18:35.661Z,46.68
2023-05-11T05:21:08.461Z,46.08
2023-05-11T05:23:40.851Z,45.28
2023-05-11T05:26:13.283Z,44.78
2023-05-11T05:28:46.196Z,44.76
2023-05-11T05:31:18.821Z,45.10
2023-05-11T05:33:51.876Z,45.17
2023-05-11T05:36:24.371Z,45.43
2023-05-11T05:38:56.662Z,46.14
2023-05-11T05:41:29.919Z,46.69
2023-05-11T05:44:03.726Z,46.30
2023-05-11T05:46:36.476Z,46.75
2023-05-11T05:49:09.321Z,46.03
2023-05-11T05:51:42.599Z,46.02
2023-05-11T05:54:15.218Z,46.33
2023-05-11T05:56:49.335Z,46.67
2023-05-11T05:59:23.604Z,46.61
2023-05-11T06:01:59.639Z,46.94
2023-05-11T06:04:31.990Z,46.03
2023-05-11T06:07:04.541Z,46.11
2023-05-11T06:09:39.028Z,45.18
2023-05-11T06:12:11.908Z,44.58
2023-05-11T06:14:47.373Z,44.59
2023-05-11T06:17:19.855Z,44.57
2023-05-11T06:19:53.499Z,45.69
2023-05-11T06:22:27.757Z,45.00
2023-05-11T06:24:59.889Z,45.06
2023-05-11T06:27:32.450Z,44.99
2023-05-11T06:30:04.873Z,44.88
2023-05-11T06:32:38.913Z,44.91
2023-05-11T06:35:12.310Z,45.79
2023-05-11T06:37:44.803Z,44.48
2023-05-11T06:40:17.423Z,44.59
2023-05-11T06:42:50.242Z,44.42
2023-05-11T06:45:22.792Z,45.07
2023-05-11T06:47:55.182Z,43.64
2023-05-11T06:50:28.488Z,44.20
2023-05-11T06:53:01.215Z,45.02
2023-05-11T06:55:34.649Z,45.92
2023-05-11T06:58:07.239Z,45.52
2023-05-11T07:00:39.483Z,46.29
2023-05-11T07:03:11.733Z,46.40
2023-05-11T07:05:44.357Z,46.49
2023-05-11T07:08:16.684Z,45.93
2023-05-11T07:10:48.804Z,46.86
2023-05-11T07:13:21.238Z,46.58
2023-05-11T07:15:56.637Z,45.85
2023-05-11T07:18:29.690Z,46.18
2023-05-11T07:21:01.763Z,46.29
2023-05-11T07:23:33.935Z,46.71
2023-05-11T07:26:09.089Z,47.68
2023-05-11T07:28:41.560Z,47.50
2023-05-11T07:31:13.706Z,47.74
2023-05-11T07:33:45.817Z,47.66
2023-05-11T07:36:18.427Z,48.27
2023-05-11T07:38:50.701Z,47.72
2023-05-11T07:41:26.130Z,48.15
2023-05-11T07:43:58.512Z,48.89
2023-05-11T07:46:31.280Z,48.63
2023-05-11T07:49:15.774Z,48.37
2023-05-11T07:51:53.222Z,47.85
2023-05-11T07:54:26.361Z,48.45
2023-05-11T07:56:58.355Z,48.46
2023-05-11T07:59:31.270Z,47.64
2023-05-11T08:02:04.254Z,47.82
2023-05-11T08:04:36.734Z,47.97
2023-05-11T08:07:09.140Z,47.35
2023-05-11T08:09:41.530Z,47.01
2023-05-11T08:12:13.838Z,46.47
2023-05-11T08:14:46.120Z,47.01
2023-05-11T08:17:20.369Z,47.03
2023-05-11T08:19:52.545Z,46.77
2023-05-11T08:22:24.653Z,46.62
2023-05-11T08:24:56.815Z,46.57
2023-05-11T08:27:29.072Z,45.47
2023-05-11T08:30:01.455Z,46.64
2023-05-11T08:32:50.113Z,47.29
2023-05-11T08:35:27.757Z,47.00
2023-05-11T08:38:00.030Z,46.28
2023-05-11T08:40:33.861Z,45.68
2023-05-11T08:43:08.050Z,46.17
2023-05-11T08:45:43.412Z,45.90
2023-05-11T08:48:17.839Z,45.19
2023-05-11T08:50:50.162Z,45.46
2023-05-11T08:53:22.423Z,45.05
2023-05-11T08:55:55.922Z,43.66
2023-05-11T08:58:29.194Z,45.03
2023-05-11T09:01:02.288Z,45.23
2023-05-11T09:03:37.221Z,45.42
2023-05-11T09:06:12.805Z,44.97
2023-05-11T09:08:47.316Z,45.24
2023-05-11T09:11:19.396Z,46.38
2023-05-11T09:13:51.964Z,44.48
2023-05-11T09:16:36.354Z,42.01
2023-05-11T09:19:15.152Z,41.48
2023-05-11T09:21:48.301Z,42.00
2023-05-11T09:24:22.852Z,42.22
2023-05-11T09:27:09.323Z,43.10
2023-05-11T09:29:41.554Z,41.70
2023-05-11T09:32:14.833Z,42.67
2023-05-11T09:34:47.647Z,41.56
2023-05-11T09:37:20.921Z,42.04
2023-05-11T09:42:32.836Z,40.75
2023-05-11T09:45:05.401Z,39.75
2023-05-11T09:47:42.304Z,39.55
2023-05-11T09:50:26.201Z,40.96
2023-05-11T09:52:58.958Z,40.26
2023-05-11T09:55:31.106Z,40.73
2023-05-11T09:58:04.761Z,39.74
2023-05-11T10:00:37.354Z,40.40
2023-05-11T10:03:10.369Z,40.58
2023-05-11T10:05:43.041Z,37.45
2023-05-11T10:08:15.460Z,38.11
2023-05-11T10:10:48.435Z,38.14
2023-05-11T10:13:20.556Z,38.65
2023-05-11T10:15:55.278Z,40.15
2023-05-11T10:18:26.730Z,39.32
2023-05-11T10:21:00.691Z,38.22
2023-05-11T10:23:34.708Z,37.83
2023-05-11T10:26:07.914Z,37.54
2023-05-11T10:28:40.906Z,36.03
2023-05-11T10:31:14.283Z,36.75
2023-05-11T10:33:48.613Z,37.65
2023-05-11T10:36:24.403Z,36.26
2023-05-11T10:38:56.870Z,35.48
2023-05-11T10:41:42.563Z,34.71
2023-05-11T10:44:31.534Z,34.31
2023-05-11T10:47:29.022Z,34.56
2023-05-11T10:50:18.065Z,35.33
2023-05-11T10:53:07.085Z,34.85
2023-05-11T10:55:58.558Z,35.92
2023-05-11T10:58:44.661Z,36.35
2023-05-11T11:01:35.218Z,34.90
2023-05-11T11:04:08.600Z,35.71
2023-05-11T11:06:42.632Z,36.09
2023-05-11T11:09:16.686Z,36.27
2023-05-11T11:11:51.683Z,36.03
2023-05-11T11:14:26.304Z,34.93
2023-05-11T11:17:25.813Z,33.42
2023-05-11T11:19:58.210Z,34.25
2023-05-11T11:22:49.429Z,34.84
2023-05-11T11:25:55.088Z,34.47
2023-05-11T11:28:28.256Z,35.78
2023-05-11T11:31:28.081Z,35.47
2023-05-11T11:34:20.928Z,35.17
2023-05-11T11:37:08.691Z,35.47
2023-05-11T11:39:53.794Z,33.47
2023-05-11T11:42:38.926Z,33.60
2023-05-11T11:45:31.559Z,34.03
2023-05-11T11:48:15.229Z,33.89
2023-05-11T11:50:51.377Z,33.42
2023-05-11T11:54:09.246Z,31.96
2023-05-11T11:56:43.836Z,32.47
2023-05-11T11:59:16.721Z,33.86
2023-05-11T12:01:55.398Z,33.41
2023-05-11T12:04:46.284Z,33.78
2023-05-11T12:07:19.948Z,33.42
2023-05-11T12:09:53.142Z,34.32
2023-05-11T12:12:26.249Z,34.72
2023-05-11T12:15:00.094Z,33.35
2023-05-11T12:17:34.659Z,32.74
2023-05-11T12:20:18.681Z,34.76
2023-05-11T12:22:51.519Z,34.64
2023-05-11T12:25:24.353Z,34.19
2023-05-11T12:28:00.509Z,35.11
2023-05-11T12:30:34.694Z,34.96
2023-05-11T12:33:10.653Z,33.59
2023-05-11T12:35:45.065Z,31.66
2023-05-11T12:38:17.664Z,32.56
2023-05-11T12:40:52.178Z,33.57
2023-05-11T12:43:24.675Z,34.12
2023-05-11T12:45:57.001Z,33.85
2023-05-11T12:48:29.395Z,34.20
2023-05-11T12:51:01.845Z,34.21
2023-05-11T12:53:37.870Z,33.78
2023-05-11T12:56:10.682Z,32.90
2023-05-11T12:58:43.821Z,32.35
2023-05-11T13:01:16.982Z,33.46
2023-05-11T13:03:49.581Z,33.28
2023-05-11T13:06:23.122Z,34.86
2023-05-11T13:08:55.354Z,35.30
2023-05-11T13:11:28.776Z,36.45
2023-05-11T13:14:00.993Z,35.62
2023-05-11T13:16:34.713Z,35.62
2023-05-11T13:19:09.242Z,34.52
2023-05-11T13:21:41.724Z,34.77
2023-05-11T13:24:22.795Z,35.03
2023-05-11T13:26:57.006Z,36.32
2023-05-11T13:29:29.853Z,35.89
2023-05-11T13:32:02.347Z,36.07
2023-05-11T13:34:35.170Z,35.76
2023-05-11T13:37:07.638Z,36.28
2023-05-11T13:39:39.830Z,34.29
2023-05-11T13:42:11.953Z,36.26
2023-05-11T13:44:44.245Z,36.49
2023-05-11T13:47:16.613Z,36.75
2023-05-11T13:49:48.985Z,35.40
2023-05-11T13:52:21.603Z,35.54
2023-05-11T13:54:53.717Z,35.88
2023-05-11T13:57:26.033Z,36.42
2023-05-11T13:59:58.300Z,36.91
2023-05-11T14:02:31.067Z,35.72
2023-05-11T14:05:03.787Z,35.77
2023-05-11T14:07:47.018Z,35.30
2023-05-11T14:10:21.017Z,35.28
2023-05-11T14:12:53.553Z,35.60
2023-05-11T14:15:26.068Z,35.31
2023-05-11T14:17:58.616Z,35.19
2023-05-11T14:20:31.006Z,34.62
2023-05-11T14:23:03.395Z,35.79
2023-05-11T14:25:36.694Z,34.72
2023-05-11T14:28:09.190Z,35.66
2023-05-11T14:30:41.995Z,35.69
2023-05-11T14:33:14.447Z,35.87
2023-05-11T14:35:48.644Z,35.43
2023-05-11T14:38:21.071Z,35.44
2023-05-11T14:40:53.409Z,34.86
2023-05-11T14:43:25.376Z,36.28
2023-05-11T14:45:57.599Z,37.20
2023-05-11T14:48:29.959Z,36.01
2023-05-11T14:51:02.555Z,36.49
2023-05-11T14:53:34.913Z,36.94
2023-05-11T14:56:07.751Z,36.42
2023-05-11T14:58:40.186Z,36.08
2023-05-11T15:01:12.653Z,37.08
2023-05-11T15:03:45.471Z,36.08
2023-05-11T15:06:21.541Z,35.60
2023-05-11T15:08:53.918Z,35.81
2023-05-11T15:11:26.125Z,34.52
2023-05-11T15:13:58.479Z,35.06
2023-05-11T15:16:32.155Z,35.93
2023-05-11T15:19:05.505Z,36.16
2023-05-11T15:21:38.205Z,36.34
2023-05-11T15:24:11.163Z,37.05
2023-05-11T15:26:43.579Z,35.03
2023-05-11T15:29:16.794Z,35.89
2023-05-11T15:31:49.489Z,35.54
2023-05-11T15:34:21.942Z,35.30
2023-05-11T15:36:54.181Z,35.46
2023-05-11T15:39:26.348Z,34.18
2023-05-11T15:41:58.715Z,34.55
2023-05-11T15:44:31.029Z,33.87
2023-05-11T15:47:03.688Z,33.79
2023-05-11T15:49:35.778Z,34.46
2023-05-11T15:52:08.932Z,33.78
2023-05-11T15:54:41.096Z,34.83
2023-05-11T15:57:13.855Z,33.87
2023-05-11T15:59:46.165Z,33.87
2023-05-11T16:02:18.521Z,34.03
2023-05-11T16:04:51.233Z,33.78
2023-05-11T16:07:23.433Z,34.12
2023-05-11T16:09:55.627Z,34.23
2023-05-11T16:12:28.057Z,33.62
2023-05-11T16:15:00.296Z,33.25
2023-05-11T16:17:32.309Z,34.10
2023-05-11T16:20:04.944Z,34.56
2023-05-11T16:22:38.997Z,34.30
2023-05-11T16:25:11.934Z,33.89
2023-05-11T16:27:44.373Z,33.51
2023-05-11T16:30:24.241Z,33.43
2023-05-11T16:32:57.594Z,33.40
2023-05-11T16:35:30.764Z,33.71
2023-05-11T16:38:03.133Z,33.73
2023-05-11T16:40:35.411Z,33.80
2023-05-11T16:43:07.601Z,33.69
2023-05-11T16:45:39.918Z,33.61
2023-05-11T16:48:12.248Z,33.46
2023-05-11T16:50:44.462Z,33.53
2023-05-11T16:53:16.609Z,33.23
2023-05-11T16:55:48.730Z,33.03
2023-05-11T16:58:21.335Z,33.14
2023-05-11T17:00:54.051Z,33.28
2023-05-11T17:03:26.952Z,32.98
2023-05-11T17:05:59.725Z,33.13
2023-05-11T17:08:33.359Z,33.25
2023-05-11T17:11:05.958Z,33.19
2023-05-11T17:13:38.249Z,32.93
2023-05-11T17:16:10.770Z,32.76
2023-05-11T17:18:43.627Z,33.57
2023-05-11T17:21:16.903Z,33.59
2023-05-11T17:23:49.131Z,33.65
2023-05-11T17:26:25.064Z,33.57
2023-05-11T17:29:00.284Z,33.34
2023-05-11T17:31:32.808Z,33.79
2023-05-11T17:34:05.387Z,34.12
2023-05-11T17:36:38.093Z,33.82
2023-05-11T17:39:10.616Z,33.51
2023-05-11T17:41:42.965Z,33.66
2023-05-11T17:44:15.684Z,33.53
2023-05-11T17:46:47.877Z,33.69
2023-05-11T17:49:20.372Z,33.82
2023-05-11T17:51:52.589Z,34.05
2023-05-11T17:54:24.903Z,33.79
2023-05-11T17:56:57.253Z,33.44
2023-05-11T17:59:29.833Z,33.67
2023-05-11T18:02:02.275Z,33.49
2023-05-11T18:04:34.893Z,33.33
2023-05-11T18:07:07.751Z,33.57
2023-05-11T18:09:39.960Z,33.72
2023-05-11T18:12:12.835Z,33.43
2023-05-11T18:14:45.119Z,33.62
2023-05-11T18:17:18.488Z,34.09
2023-05-11T18:19:50.884Z,34.52
2023-05-11T18:22:22.950Z,34.61
2023-05-11T18:24:55.212Z,35.15
2023-05-11T18:27:27.275Z,34.82
2023-05-11T18:29:59.425Z,35.08
2023-05-11T18:32:31.870Z,35.35
2023-05-11T18:35:04.671Z,35.65
2023-05-11T18:37:37.048Z,36.05
2023-05-11T18:40:11.790Z,36.04
2023-05-11T18:42:42.498Z,36.24
2023-05-11T18:45:15.143Z,37.07
2023-05-11T18:47:49.568Z,37.05
2023-05-11T18:50:22.473Z,37.09
2023-05-11T18:52:54.997Z,37.46
2023-05-11T18:55:30.872Z,37.37
2023-05-11T18:58:03.985Z,37.79
2023-05-11T19:00:39.413Z,38.21
2023-05-11T19:03:11.974Z,38.11
2023-05-11T19:05:45.017Z,38.54
2023-05-11T19:08:17.631Z,38.80
2023-05-11T19:10:50.576Z,39.10
2023-05-11T19:13:22.874Z,38.63
2023-05-11T19:15:55.214Z,38.99
2023-05-11T19:18:27.850Z,39.43
2023-05-11T19:21:00.414Z,39.21
2023-05-11T19:23:32.842Z,39.83
2023-05-11T19:26:05.126Z,39.38
2023-05-11T19:28:37.536Z,39.93
2023-05-11T19:31:09.862Z,40.18
2023-05-11T19:33:42.211Z,40.25
2023-05-11T19:36:14.961Z,39.85
2023-05-11T19:38:47.286Z,39.78
2023-05-11T19:41:19.386Z,39.99
2023-05-11T19:43:52.038Z,40.46
2023-05-11T19:46:24.473Z,39.99
2023-05-11T19:48:57.770Z,39.97
2023-05-11T19:51:30.287Z,40.37
2023-05-11T19:54:02.829Z,40.46
2023-05-11T19:56:35.231Z,40.84
2023-05-11T19:59:07.205Z,40.25
2023-05-11T20:01:39.400Z,40.44
2023-05-11T20:04:12.826Z,40.49
2023-05-11T20:06:45.717Z,40.72
2023-05-11T20:09:18.443Z,40.78
2023-05-11T20:11:50.690Z,40.71
2023-05-11T20:14:23.232Z,40.71
2023-05-11T20:16:55.786Z,40.79
2023-05-11T20:19:28.287Z,40.52
2023-05-11T20:22:01.593Z,40.63
2023-05-11T20:24:34.233Z,40.54
2023-05-11T20:27:09.713Z,40.65
2023-05-11T20:29:40.511Z,41.06
2023-05-11T20:32:12.888Z,40.89
2023-05-11T20:34:45.183Z,41.18
2023-05-11T20:37:17.638Z,41.35
2023-05-11T20:39:50.123Z,41.80
2023-05-11T20:42:22.362Z,42.16
2023-05-11T20:44:54.912Z,41.82
2023-05-11T20:47:27.232Z,41.89
2023-05-11T20:49:59.449Z,41.95
2023-05-11T20:52:32.519Z,42.19
2023-05-11T20:55:04.904Z,42.33
2023-05-11T20:57:37.162Z,42.11
2023-05-11T21:00:15.639Z,42.36
2023-05-11T21:02:48.542Z,42.26
2023-05-11T21:05:22.943Z,42.34
2023-05-11T21:07:57.332Z,42.30
2023-05-11T21:10:29.647Z,42.50
2023-05-11T21:13:02.247Z,42.38
2023-05-11T21:15:34.516Z,42.73
2023-05-11T21:18:07.818Z,42.62
2023-05-11T21:20:40.260Z,42.81
2023-05-11T21:23:12.410Z,43.12
2023-05-11T21:25:44.681Z,42.96
2023-05-11T21:28:17.119Z,43.39
2023-05-11T21:30:50.147Z,43.27
2023-05-11T21:33:22.420Z,43.29
2023-05-11T21:35:55.380Z,43.17
2023-05-11T21:38:28.206Z,43.51
2023-05-11T21:41:00.515Z,43.21
2023-05-11T21:43:33.376Z,43.54
2023-05-11T21:46:06.199Z,43.39
2023-05-11T21:48:38.254Z,43.51
2023-05-11T21:51:10.702Z,43.23
2023-05-11T21:53:43.121Z,43.41
2023-05-11T21:56:15.370Z,43.50
2023-05-11T21:58:47.914Z,43.75
2023-05-11T22:01:20.248Z,44.02
2023-05-11T22:03:52.461Z,43.64
2023-05-11T22:06:25.077Z,43.63
2023-05-11T22:08:57.508Z,43.73
2023-05-11T22:11:29.685Z,43.97
2023-05-11T22:14:01.930Z,43.96
2023-05-11T22:16:34.097Z,44.12
2023-05-11T22:19:06.886Z,44.13
2023-05-11T22:21:38.954Z,44.26
2023-05-11T22:24:13.554Z,44.38
2023-05-11T22:26:45.665Z,44.14
2023-05-11T22:29:18.157Z,44.36
2023-05-11T22:31:52.200Z,44.48
2023-05-11T22:34:24.523Z,44.45
2023-05-11T22:36:56.787Z,44.42
2023-05-11T22:39:29.355Z,44.51
2023-05-11T22:42:01.846Z,44.84
2023-05-11T22:44:34.144Z,44.91
2023-05-11T22:47:06.486Z,44.88
2023-05-11T22:49:38.799Z,45.18
2023-05-11T22:52:11.413Z,44.76
2023-05-11T22:54:43.902Z,45.17
2023-05-11T22:57:17.736Z,45.02
2023-05-11T22:59:49.787Z,45.26
2023-05-11T23:02:23.120Z,45.03
2023-05-11T23:04:56.150Z,45.39
2023-05-11T23:07:28.744Z,45.32
2023-05-11T23:10:01.156Z,45.15
2023-05-11T23:15:23.366Z,45.57
2023-05-11T23:17:55.556Z,45.24
2023-05-11T23:20:27.854Z,45.47
2023-05-11T23:22:59.750Z,45.28
2023-05-11T23:25:32.167Z,45.62
2023-05-11T23:28:11.290Z,45.83
2023-05-11T23:30:45.987Z,45.46
2023-05-11T23:33:18.217Z,45.89
2023-05-11T23:35:51.118Z,45.51
2023-05-11T23:38:23.597Z,45.54
2023-05-11T23:40:56.535Z,45.55
2023-05-11T23:43:29.157Z,45.81
2023-05-11T23:46:02.525Z,45.54
2023-05-11T23:48:34.969Z,45.75
2023-05-11T23:51:07.290Z,45.93
2023-05-11T23:53:39.241Z,45.79
2023-05-11T23:56:11.528Z,46.18
2023-05-11T23:58:45.738Z,46.08
